createdAt,value
2018-02-21T00:00:39.347Z,53.73
2018-02-21T00:03:06.828Z,53.70
2018-02-21T00:05:34.320Z,52.77
2018-02-21T00:08:01.803Z,50.90
2018-02-21T00:10:29.293Z,51.47
2018-02-21T00:12:57.549Z,54.30
2018-02-21T00:15:25.154Z,48.27
2018-02-21T00:17:52.631Z,56.77
2018-02-21T00:20:20.124Z,48.67
2018-02-21T00:22:47.601Z,49.20
2018-02-21T00:25:15.855Z,59.20
2018-02-21T00:27:43.347Z,53.87
2018-02-21T00:30:11.603Z,46.00
2018-02-21T00:32:39.849Z,58.63
2018-02-21T00:35:07.357Z,54.47
2018-02-21T00:37:41.033Z,49.05
2018-02-21T00:40:08.517Z,50.47
2018-02-21T00:42:36.000Z,54.13
2018-02-21T00:45:03.496Z,50.60
2018-02-21T00:47:30.972Z,52.33
2018-02-21T00:49:59.214Z,52.73
2018-02-21T00:52:26.686Z,56.17
2018-02-21T00:54:54.196Z,57.70
2018-02-21T00:57:21.677Z,53.23
2018-02-21T00:59:49.140Z,61.50
2018-02-21T01:02:16.637Z,54.43
2018-02-21T01:04:44.889Z,54.87
2018-02-21T01:07:13.352Z,47.20
2018-02-21T01:09:40.837Z,55.30
2018-02-21T01:12:08.322Z,57.60
2018-02-21T01:14:35.796Z,58.73
2018-02-21T01:17:03.293Z,53.47
2018-02-21T01:19:30.759Z,54.70
2018-02-21T01:21:58.248Z,50.27
2018-02-21T01:24:26.486Z,56.50
2018-02-21T01:26:53.980Z,52.73
2018-02-21T01:29:22.348Z,57.20
2018-02-21T01:31:50.600Z,60.70
2018-02-21T01:34:18.072Z,45.40
2018-02-21T01:36:46.328Z,56.20
2018-02-21T01:39:13.812Z,50.13
2018-02-21T01:41:41.296Z,49.17
2018-02-21T01:44:08.815Z,49.23
2018-02-21T01:46:36.300Z,51.17
2018-02-21T01:49:04.532Z,49.43
2018-02-21T01:51:32.119Z,53.03
2018-02-21T01:54:00.377Z,50.20
2018-02-21T01:56:27.881Z,49.07
2018-02-21T01:58:55.352Z,54.13
2018-02-21T02:01:22.871Z,50.83
2018-02-21T02:03:51.428Z,47.10
2018-02-21T02:06:18.923Z,48.20
2018-02-21T02:08:47.155Z,53.70
2018-02-21T02:11:14.656Z,56.63
2018-02-21T02:13:42.919Z,52.43
2018-02-21T02:16:10.400Z,47.00
2018-02-21T02:18:37.882Z,47.43
2018-02-21T02:21:05.376Z,53.50
2018-02-21T02:23:33.673Z,55.40
2018-02-21T02:26:01.136Z,53.10
2018-02-21T02:28:29.395Z,50.63
2018-02-21T02:30:58.387Z,53.97
2018-02-21T02:33:25.960Z,51.80
2018-02-21T02:35:53.445Z,51.57
2018-02-21T02:38:33.001Z,47.80
2018-02-21T02:41:00.468Z,49.73
2018-02-21T02:43:27.945Z,52.37
2018-02-21T02:45:55.439Z,48.77
2018-02-21T02:48:23.715Z,56.13
2018-02-21T02:50:51.951Z,52.30
2018-02-21T02:53:19.443Z,48.60
2018-02-21T02:55:47.684Z,55.77
2018-02-21T02:58:15.183Z,58.03
2018-02-21T03:00:43.417Z,49.23
2018-02-21T03:03:10.999Z,55.90
2018-02-21T03:05:38.484Z,54.23
2018-02-21T03:08:06.746Z,53.03
2018-02-21T03:10:35.003Z,54.00
2018-02-21T03:13:03.291Z,53.53
2018-02-21T03:15:31.375Z,57.07
2018-02-21T03:20:51.665Z,58.57
2018-02-21T03:23:19.949Z,58.30
2018-02-21T03:25:47.437Z,51.60
2018-02-21T03:28:14.922Z,51.43
2018-02-21T03:30:42.411Z,49.05
2018-02-21T03:33:09.900Z,48.33
2018-02-21T03:35:38.160Z,47.77
2018-02-21T03:38:07.158Z,53.33
2018-02-21T03:40:34.642Z,52.93
2018-02-21T03:43:02.124Z,52.97
2018-02-21T03:45:29.596Z,56.57
2018-02-21T03:47:57.111Z,60.40
2018-02-21T03:50:24.590Z,57.30
2018-02-21T03:52:52.081Z,59.83
2018-02-21T03:55:19.560Z,56.47
2018-02-21T03:57:47.073Z,49.50
2018-02-21T04:00:14.554Z,61.23
2018-02-21T04:02:42.681Z,53.30
2018-02-21T04:05:10.174Z,57.90
2018-02-21T04:07:37.664Z,58.97
2018-02-21T04:10:05.146Z,57.00
2018-02-21T04:12:33.403Z,56.37
2018-02-21T04:15:00.878Z,53.50
2018-02-21T04:17:29.132Z,55.33
2018-02-21T04:19:57.631Z,56.13
2018-02-21T04:22:25.897Z,59.77
2018-02-21T04:24:54.468Z,57.95
2018-02-21T04:27:21.970Z,61.57
2018-02-21T04:29:49.462Z,62.77
2018-02-21T04:32:16.960Z,59.77
2018-02-21T04:34:45.198Z,58.70
2018-02-21T04:37:26.217Z,58.60
2018-02-21T04:39:54.468Z,60.33
2018-02-21T04:42:21.961Z,58.90
2018-02-21T04:44:49.461Z,60.00
2018-02-21T04:47:16.954Z,60.10
2018-02-21T04:49:45.193Z,57.70
2018-02-21T04:52:12.684Z,65.43
2018-02-21T04:54:47.892Z,60.53
2018-02-21T05:10:45.269Z,66.57
2018-02-21T05:13:13.550Z,61.78
2018-02-21T05:15:41.788Z,63.93
2018-02-21T05:18:09.290Z,61.33
2018-02-21T05:20:37.564Z,63.53
2018-02-21T05:23:05.830Z,61.90
2018-02-21T05:25:33.310Z,65.60
2018-02-21T05:28:00.806Z,66.47
2018-02-21T05:30:28.287Z,67.90
2018-02-21T05:32:55.786Z,64.43
2018-02-21T05:35:24.571Z,66.90
2018-02-21T05:37:52.073Z,75.20
2018-02-21T05:40:19.564Z,70.57
2018-02-21T05:42:47.631Z,65.37
2018-02-21T05:45:15.121Z,64.03
2018-02-21T05:47:42.626Z,66.43
2018-02-21T05:50:10.233Z,69.07
2018-02-21T05:52:38.548Z,60.63
2018-02-21T05:55:06.005Z,59.97
2018-02-21T05:57:34.519Z,56.63
2018-02-21T06:00:02.790Z,57.20
2018-02-21T06:02:30.266Z,55.57
2018-02-21T06:04:57.760Z,53.73
2018-02-21T06:07:25.240Z,55.20
2018-02-21T06:09:52.746Z,54.43
2018-02-21T06:12:20.999Z,52.87
2018-02-21T06:14:48.498Z,46.63
2018-02-21T06:17:16.024Z,52.80
2018-02-21T06:19:43.870Z,57.33
2018-02-21T06:22:11.345Z,51.33
2018-02-21T06:24:38.842Z,50.93
2018-02-21T06:27:06.339Z,54.00
2018-02-21T06:29:33.836Z,49.43
2018-02-21T06:32:02.123Z,51.33
2018-02-21T06:34:30.404Z,50.27
2018-02-21T06:36:57.885Z,50.57
2018-02-21T06:39:25.389Z,51.17
2018-02-21T06:41:52.884Z,50.80
2018-02-21T06:44:20.386Z,50.97
2018-02-21T06:46:47.879Z,55.27
2018-02-21T06:49:15.402Z,50.07
2018-02-21T06:51:42.886Z,54.87
2018-02-21T06:54:10.386Z,51.07
2018-02-21T06:56:37.860Z,50.43
2018-02-21T06:59:05.376Z,52.87
2018-02-21T07:01:33.621Z,53.57
2018-02-21T07:04:01.119Z,55.10
2018-02-21T07:06:28.608Z,53.13
2018-02-21T07:08:56.098Z,59.27
2018-02-21T07:11:23.576Z,57.70
2018-02-21T07:13:51.862Z,64.03
2018-02-21T07:16:20.120Z,59.93
2018-02-21T07:18:47.625Z,61.90
2018-02-21T07:21:15.106Z,66.03
2018-02-21T07:23:42.627Z,61.90
2018-02-21T07:26:10.134Z,57.83
2018-02-21T07:28:37.716Z,58.33
2018-02-21T07:31:05.225Z,61.00
2018-02-21T07:33:32.719Z,56.83
2018-02-21T07:36:02.652Z,53.27
2018-02-21T07:38:30.903Z,62.50
2018-02-21T07:40:58.401Z,65.20
2018-02-21T07:43:25.888Z,63.93
2018-02-21T07:45:53.402Z,63.87
2018-02-21T07:48:21.651Z,61.90
2018-02-21T07:50:49.155Z,64.53
2018-02-21T07:53:16.643Z,63.63
2018-02-21T07:55:44.133Z,65.93
2018-02-21T07:58:11.613Z,64.17
2018-02-21T08:00:39.866Z,67.27
2018-02-21T08:03:07.354Z,68.00
2018-02-21T08:05:35.634Z,70.67
2018-02-21T08:08:03.876Z,72.70
2018-02-21T08:10:32.148Z,80.67
2018-02-21T08:12:59.630Z,73.13
2018-02-21T08:15:28.002Z,73.53
2018-02-21T08:17:55.484Z,75.13
2018-02-21T08:20:22.990Z,65.53
2018-02-21T08:22:50.494Z,64.90
2018-02-21T08:25:18.807Z,73.87
2018-02-21T08:27:46.292Z,76.43
2018-02-21T08:30:14.607Z,70.70
2018-02-21T08:32:42.856Z,73.23
2018-02-21T08:35:10.367Z,76.73
2018-02-21T08:37:37.858Z,76.07
2018-02-21T08:40:05.379Z,72.10
2018-02-21T08:42:32.874Z,70.40
2018-02-21T08:45:00.371Z,68.03
2018-02-21T08:47:28.614Z,71.87
2018-02-21T08:49:56.107Z,65.10
2018-02-21T08:52:24.367Z,69.12
2018-02-21T08:54:52.640Z,70.00
2018-02-21T08:57:21.622Z,66.97
2018-02-21T08:59:49.138Z,69.63
2018-02-21T09:02:16.647Z,72.90
2018-02-21T09:04:44.926Z,76.15
2018-02-21T09:07:12.412Z,70.00
2018-02-21T09:09:39.888Z,78.73
2018-02-21T09:12:07.374Z,67.63
2018-02-21T09:14:34.857Z,68.97
2018-02-21T09:17:03.867Z,75.97
2018-02-21T09:19:32.122Z,71.77
2018-02-21T09:21:59.613Z,77.67
2018-02-21T09:24:27.102Z,79.10
2018-02-21T09:26:54.589Z,78.57
2018-02-21T09:29:22.078Z,64.70
2018-02-21T09:31:49.583Z,76.77
2018-02-21T09:34:17.070Z,83.77
2018-02-21T09:36:44.651Z,71.33
2018-02-21T09:39:12.908Z,69.53
2018-02-21T09:41:40.393Z,78.83
2018-02-21T09:44:07.931Z,74.87
2018-02-21T09:46:36.610Z,75.50
2018-02-21T09:49:04.867Z,77.60
2018-02-21T09:51:32.374Z,78.90
2018-02-21T09:53:59.881Z,75.10
2018-02-21T09:56:27.371Z,86.10
2018-02-21T09:58:55.606Z,72.43
2018-02-21T10:01:23.116Z,70.93
2018-02-21T10:03:51.371Z,85.63
2018-02-21T10:06:18.874Z,83.80
2018-02-21T10:08:46.358Z,74.07
2018-02-21T10:11:13.863Z,70.17
2018-02-21T10:13:42.112Z,75.03
2018-02-21T10:16:09.613Z,70.40
2018-02-21T10:18:37.098Z,74.20
2018-02-21T10:21:04.593Z,70.62
2018-02-21T10:23:32.074Z,75.47
2018-02-21T10:26:00.337Z,73.13
2018-02-21T10:28:28.587Z,79.50
2018-02-21T10:30:56.074Z,76.77
2018-02-21T10:33:24.321Z,71.00
2018-02-21T10:35:51.806Z,72.07
2018-02-21T10:38:20.061Z,72.63
2018-02-21T10:40:48.642Z,85.68
2018-02-21T10:43:16.118Z,77.93
2018-02-21T10:45:44.369Z,75.00
2018-02-21T10:48:11.859Z,74.97
2018-02-21T10:50:40.098Z,77.57
2018-02-21T10:53:07.590Z,76.00
2018-02-21T10:55:35.847Z,76.10
2018-02-21T10:58:03.325Z,78.60
2018-02-21T11:00:37.380Z,81.30
2018-02-21T11:03:04.866Z,75.00
2018-02-21T11:05:33.865Z,77.93
2018-02-21T11:08:01.349Z,65.30
2018-02-21T11:10:29.594Z,72.10
2018-02-21T11:12:58.691Z,75.30
2018-02-21T11:15:26.182Z,85.07
2018-02-21T11:17:54.554Z,86.47
2018-02-21T11:20:22.816Z,83.93
2018-02-21T11:22:50.364Z,79.37
2018-02-21T11:25:17.856Z,84.32
2018-02-21T11:27:46.147Z,81.68
2018-02-21T11:30:13.621Z,84.33
2018-02-21T11:32:41.136Z,82.63
2018-02-21T11:35:09.381Z,76.20
2018-02-21T11:37:36.935Z,77.10
2018-02-21T11:40:04.416Z,89.13
2018-02-21T11:42:32.674Z,83.40
2018-02-21T11:45:00.158Z,78.13
2018-02-21T11:47:28.454Z,77.80
2018-02-21T11:49:56.713Z,83.23
2018-02-21T11:52:24.978Z,84.83
2018-02-21T11:54:52.458Z,75.80
2018-02-21T11:57:20.729Z,73.77
2018-02-21T11:59:48.975Z,73.03
2018-02-21T12:02:16.467Z,79.37
2018-02-21T12:04:44.776Z,80.27
2018-02-21T12:07:12.228Z,71.30
2018-02-21T12:09:39.723Z,87.70
2018-02-21T12:12:07.211Z,84.27
2018-02-21T12:14:35.480Z,80.03
2018-02-21T12:17:03.739Z,84.67
2018-02-21T12:19:31.219Z,81.37
2018-02-21T12:21:59.490Z,82.43
2018-02-21T12:24:27.733Z,79.30
2018-02-21T12:26:56.210Z,85.30
2018-02-21T12:29:23.692Z,75.78
2018-02-21T12:32:02.998Z,82.07
2018-02-21T12:34:30.493Z,85.97
2018-02-21T12:36:57.994Z,84.93
2018-02-21T12:42:18.771Z,81.63
2018-02-21T12:44:46.255Z,76.80
2018-02-21T12:47:13.738Z,79.00
2018-02-21T12:49:41.221Z,84.20
2018-02-21T12:52:08.849Z,81.07
2018-02-21T12:54:36.309Z,81.03
2018-02-21T12:57:03.805Z,78.60
2018-02-21T12:59:31.298Z,80.73
2018-02-21T13:01:59.536Z,83.57
2018-02-21T13:04:27.025Z,73.80
2018-02-21T13:06:55.267Z,86.73
2018-02-21T13:09:22.753Z,80.90
2018-02-21T13:11:51.008Z,81.80
2018-02-21T13:14:18.502Z,80.53
2018-02-21T13:16:46.749Z,76.83
2018-02-21T13:19:15.152Z,74.10
2018-02-21T13:21:43.399Z,78.07
2018-02-21T13:24:11.033Z,84.47
2018-02-21T13:26:38.517Z,77.10
2018-02-21T13:29:06.032Z,85.70
2018-02-21T13:31:33.511Z,88.50
2018-02-21T13:34:01.000Z,90.20
2018-02-21T13:36:28.558Z,80.33
2018-02-21T13:38:56.053Z,75.53
2018-02-21T13:41:24.472Z,85.90
2018-02-21T13:43:51.961Z,75.43
2018-02-21T13:46:20.227Z,72.77
2018-02-21T13:48:47.722Z,77.30
2018-02-21T13:51:15.207Z,72.03
2018-02-21T13:53:42.688Z,71.80
2018-02-21T13:56:10.174Z,74.63
2018-02-21T13:58:37.683Z,68.93
2018-02-21T14:01:05.450Z,68.63
2018-02-21T14:03:32.931Z,72.27
2018-02-21T14:06:00.528Z,72.32
2018-02-21T14:08:28.774Z,66.97
2018-02-21T14:10:57.763Z,72.10
2018-02-21T14:13:25.268Z,67.53
2018-02-21T14:15:52.774Z,70.40
2018-02-21T14:18:21.077Z,67.97
2018-02-21T14:20:49.325Z,71.93
2018-02-21T14:23:16.839Z,65.20
2018-02-21T14:25:44.326Z,69.00
2018-02-21T14:28:11.826Z,71.55
2018-02-21T14:30:39.289Z,69.53
2018-02-21T14:33:08.300Z,72.30
2018-02-21T14:35:36.555Z,70.53
2018-02-21T14:38:04.809Z,66.60
2018-02-21T14:40:32.297Z,67.70
2018-02-21T14:43:00.548Z,69.07
2018-02-21T14:45:28.818Z,66.93
2018-02-21T14:47:58.736Z,56.60
2018-02-21T14:50:26.238Z,66.47
2018-02-21T14:52:53.745Z,83.30
2018-02-21T14:55:21.245Z,65.07
2018-02-21T14:57:49.523Z,66.30
2018-02-21T15:00:17.015Z,60.53
2018-02-21T15:02:44.493Z,64.23
2018-02-21T15:05:11.982Z,68.67
2018-02-21T15:07:40.252Z,55.63
2018-02-21T15:10:07.753Z,60.37
2018-02-21T15:12:35.230Z,61.00
2018-02-21T15:15:02.727Z,61.03
2018-02-21T15:17:30.969Z,58.10
2018-02-21T15:19:58.453Z,57.70
2018-02-21T15:22:26.712Z,62.83
2018-02-21T15:24:54.221Z,63.93
2018-02-21T15:27:21.703Z,74.73
2018-02-21T15:29:49.184Z,65.13
2018-02-21T15:32:16.786Z,58.57
2018-02-21T15:34:45.045Z,68.10
2018-02-21T15:37:12.533Z,61.97
2018-02-21T15:39:40.015Z,60.10
2018-02-21T15:42:07.493Z,57.47
2018-02-21T15:44:34.982Z,55.43
2018-02-21T15:47:03.226Z,68.57
2018-02-21T15:49:30.819Z,63.70
2018-02-21T15:51:59.090Z,62.33
2018-02-21T15:54:27.330Z,67.43
2018-02-21T15:56:54.820Z,56.77
2018-02-21T15:59:22.305Z,58.63
2018-02-21T16:01:49.775Z,65.47
2018-02-21T16:04:17.282Z,62.43
2018-02-21T16:06:44.758Z,67.50
2018-02-21T16:09:12.234Z,58.67
2018-02-21T16:11:40.473Z,58.50
2018-02-21T16:14:09.473Z,55.50
2018-02-21T16:16:37.728Z,56.97
2018-02-21T16:19:05.216Z,53.80
2018-02-21T16:21:33.492Z,49.27
2018-02-21T16:24:01.729Z,56.87
2018-02-21T16:26:29.232Z,60.10
2018-02-21T16:28:57.474Z,57.90
2018-02-21T16:31:24.975Z,54.70
2018-02-21T16:33:53.218Z,52.80
2018-02-21T16:36:21.509Z,53.97
2018-02-21T16:38:48.988Z,54.43
2018-02-21T16:41:17.241Z,52.27
2018-02-21T16:43:44.826Z,53.50
2018-02-21T16:46:13.085Z,57.70
2018-02-21T16:48:41.345Z,60.75
2018-02-21T16:51:10.341Z,60.10
2018-02-21T16:53:37.831Z,58.30
2018-02-21T16:56:05.312Z,55.90
2018-02-21T16:58:32.785Z,58.77
2018-02-21T17:01:00.262Z,56.03
2018-02-21T17:03:27.733Z,59.43
2018-02-21T17:05:55.222Z,53.63
2018-02-21T17:08:22.718Z,66.10
2018-02-21T17:10:50.221Z,61.50
2018-02-21T17:13:18.482Z,60.70
2018-02-21T17:15:45.976Z,66.03
2018-02-21T17:18:13.468Z,62.10
2018-02-21T17:20:41.104Z,62.38
2018-02-21T17:23:09.348Z,60.27
2018-02-21T17:25:37.606Z,63.63
2018-02-21T17:28:06.613Z,62.50
2018-02-21T17:30:35.812Z,69.37
2018-02-21T17:33:04.050Z,57.27
2018-02-21T17:35:31.549Z,53.03
2018-02-21T17:37:59.797Z,53.90
2018-02-21T17:40:27.288Z,53.27
2018-02-21T17:42:55.542Z,59.13
2018-02-21T17:45:23.034Z,60.13
2018-02-21T17:47:50.520Z,57.07
2018-02-21T17:50:18.031Z,61.87
2018-02-21T17:52:46.272Z,55.90
2018-02-21T17:55:13.770Z,59.50
2018-02-21T17:57:42.034Z,50.60
2018-02-21T18:00:09.519Z,55.03
2018-02-21T18:02:36.995Z,59.20
2018-02-21T18:05:04.486Z,57.63
2018-02-21T18:07:31.981Z,64.10
2018-02-21T18:10:00.937Z,65.00
2018-02-21T18:12:28.433Z,55.73
2018-02-21T18:14:56.661Z,52.23
2018-02-21T18:17:24.153Z,53.37
2018-02-21T18:19:51.625Z,57.87
2018-02-21T18:22:19.873Z,58.50
2018-02-21T18:24:48.267Z,54.73
2018-02-21T18:27:16.521Z,55.60
2018-02-21T18:29:45.506Z,63.40
2018-02-21T18:32:12.998Z,51.53
2018-02-21T18:34:41.242Z,55.20
2018-02-21T18:37:09.546Z,59.17
2018-02-21T18:39:37.787Z,56.57
2018-02-21T18:42:05.318Z,55.07
2018-02-21T18:44:32.800Z,55.83
2018-02-21T18:47:00.290Z,50.72
2018-02-21T18:49:27.778Z,57.77
2018-02-21T18:51:55.278Z,53.27
2018-02-21T18:54:22.754Z,55.13
2018-02-21T18:56:50.245Z,49.60
2018-02-21T18:59:18.496Z,48.60
2018-02-21T19:01:45.979Z,76.83
2018-02-21T19:04:13.468Z,59.10
2018-02-21T19:06:40.974Z,60.63
2018-02-21T19:09:08.460Z,60.05
2018-02-21T19:11:35.957Z,53.83
2018-02-21T19:14:03.444Z,50.57
2018-02-21T19:16:30.926Z,48.13
2018-02-21T19:18:59.173Z,48.30
2018-02-21T19:21:27.424Z,47.03
2018-02-21T19:23:54.904Z,44.77
2018-02-21T19:26:22.403Z,39.73
2018-02-21T19:28:49.944Z,42.43
2018-02-21T19:31:18.246Z,41.07
2018-02-21T19:33:45.759Z,42.80
2018-02-21T19:36:13.253Z,43.10
2018-02-21T19:38:40.719Z,42.40
2018-02-21T19:41:08.204Z,41.20
2018-02-21T19:43:35.705Z,36.47
2018-02-21T19:46:03.964Z,45.00
2018-02-21T19:48:31.533Z,47.83
2018-02-21T19:50:59.774Z,41.63
2018-02-21T19:53:27.274Z,46.50
2018-02-21T19:55:55.516Z,50.53
2018-02-21T19:58:23.008Z,38.27
2018-02-21T20:00:51.254Z,41.40
2018-02-21T20:03:18.796Z,42.27
2018-02-21T20:05:46.294Z,47.30
2018-02-21T20:08:13.801Z,50.40
2018-02-21T20:10:41.278Z,40.93
2018-02-21T20:13:08.783Z,37.63
2018-02-21T20:15:37.024Z,38.60
2018-02-21T20:18:04.519Z,36.90
2018-02-21T20:20:32.774Z,38.00
2018-02-21T20:23:00.266Z,36.83
2018-02-21T20:25:27.744Z,37.27
2018-02-21T20:27:55.237Z,44.47
2018-02-21T20:30:22.739Z,42.63
2018-02-21T20:32:50.234Z,37.37
2018-02-21T20:35:18.466Z,47.50
2018-02-21T20:37:46.725Z,41.97
2018-02-21T20:40:14.974Z,40.87
2018-02-21T20:42:42.466Z,36.20
2018-02-21T20:45:10.700Z,44.33
2018-02-21T20:47:38.215Z,40.30
2018-02-21T20:50:05.710Z,50.13
2018-02-21T20:52:33.205Z,41.83
2018-02-21T20:55:00.684Z,45.43
2018-02-21T20:57:29.044Z,55.40
2018-02-21T20:59:57.324Z,64.77
2018-02-21T21:02:24.872Z,52.17
2018-02-21T21:04:53.122Z,48.50
2018-02-21T21:07:20.614Z,45.17
2018-02-21T21:09:48.857Z,47.10
2018-02-21T21:12:16.380Z,45.60
2018-02-21T21:14:43.869Z,42.80
2018-02-21T21:17:11.361Z,55.30
2018-02-21T21:19:40.849Z,44.17
2018-02-21T21:22:08.340Z,48.77
2018-02-21T21:24:36.576Z,51.57
2018-02-21T21:27:04.085Z,41.83
2018-02-21T21:29:31.575Z,44.67
2018-02-21T21:31:59.993Z,42.87
2018-02-21T21:34:27.489Z,41.57
2018-02-21T21:36:54.980Z,48.40
2018-02-21T21:39:22.488Z,40.13
2018-02-21T21:41:50.730Z,46.27
2018-02-21T21:44:18.222Z,41.63
2018-02-21T21:46:46.484Z,51.70
2018-02-21T21:49:14.741Z,43.10
2018-02-21T21:51:42.245Z,40.63
2018-02-21T21:54:09.753Z,40.00
2018-02-21T21:56:37.248Z,44.27
2018-02-21T21:59:04.747Z,42.93
2018-02-21T22:01:32.231Z,43.77
2018-02-21T22:03:59.741Z,45.00
2018-02-21T22:06:27.216Z,38.10
2018-02-21T22:08:54.713Z,40.70
2018-02-21T22:11:22.212Z,43.83
2018-02-21T22:13:50.761Z,41.10
2018-02-21T22:16:19.013Z,41.30
2018-02-21T22:18:46.500Z,43.60
2018-02-21T22:21:14.749Z,38.63
2018-02-21T22:23:42.263Z,42.23
2018-02-21T22:26:09.742Z,43.33
2018-02-21T22:28:37.259Z,45.60
2018-02-21T22:31:05.526Z,44.37
2018-02-21T22:33:33.780Z,39.43
2018-02-21T22:36:01.273Z,42.70
2018-02-21T22:38:29.533Z,45.50
2018-02-21T22:40:57.795Z,42.20
2018-02-21T22:43:25.290Z,41.33
2018-02-21T22:45:52.764Z,46.40
2018-02-21T22:48:20.269Z,40.30
2018-02-21T22:50:47.736Z,44.07
2018-02-21T22:53:16.008Z,38.97
2018-02-21T22:55:43.484Z,44.03
2018-02-21T22:58:11.744Z,46.30
2018-02-21T23:00:39.255Z,44.97
2018-02-21T23:03:06.731Z,45.83
2018-02-21T23:05:34.208Z,43.30
2018-02-21T23:08:01.718Z,48.20
2018-02-21T23:10:29.243Z,46.97
2018-02-21T23:12:57.502Z,49.53
2018-02-21T23:15:25.001Z,49.07
2018-02-21T23:17:59.188Z,46.73
2018-02-21T23:20:27.473Z,37.53
2018-02-21T23:22:55.709Z,46.00
2018-02-21T23:25:23.211Z,47.77
2018-02-21T23:27:51.481Z,47.10
2018-02-21T23:30:19.733Z,40.57
2018-02-21T23:32:47.221Z,43.33
2018-02-21T23:35:15.480Z,45.07
2018-02-21T23:37:43.735Z,43.30
2018-02-21T23:40:11.218Z,44.20
2018-02-21T23:42:38.690Z,45.10
2018-02-21T23:45:06.956Z,40.73
2018-02-21T23:47:35.224Z,46.87
2018-02-21T23:50:02.740Z,43.60
2018-02-21T23:52:30.225Z,43.92
2018-02-21T23:54:57.810Z,46.10
2018-02-21T23:57:26.066Z,48.50
2018-02-21T23:59:53.557Z,42.20
